createdAt,value
2022-10-12T00:01:13.942Z,9.80
2022-10-12T00:03:42.737Z,9.70
2022-10-12T00:06:20.652Z,9.70
2022-10-12T00:08:50.853Z,9.70
2022-10-12T00:11:22.802Z,9.70
2022-10-12T00:13:51.438Z,9.60
2022-10-12T00:16:22.205Z,9.70
2022-10-12T00:18:55.486Z,9.70
2022-10-12T00:21:24.952Z,9.70
2022-10-12T00:23:55.333Z,9.60
2022-10-12T00:26:25.112Z,9.60
2022-10-12T00:29:02.120Z,9.60
2022-10-12T00:31:31.513Z,9.60
2022-10-12T00:34:04.553Z,9.50
2022-10-12T00:36:35.801Z,9.50
2022-10-12T00:39:07.981Z,9.40
2022-10-12T00:41:39.585Z,9.50
2022-10-12T00:44:39.696Z,9.50
2022-10-12T00:47:16.505Z,9.50
2022-10-12T00:49:48.193Z,9.60
2022-10-12T00:52:20.142Z,9.50
2022-10-12T00:54:51.537Z,9.70
2022-10-12T00:57:21.846Z,9.70
2022-10-12T00:59:54.731Z,9.60
2022-10-12T01:02:26.806Z,9.60
2022-10-12T01:04:55.782Z,9.60
2022-10-12T01:07:24.310Z,9.80
2022-10-12T01:09:53.305Z,9.80
2022-10-12T01:12:23.080Z,9.80
2022-10-12T01:14:51.895Z,9.80
2022-10-12T01:17:26.476Z,9.80
2022-10-12T01:20:28.556Z,9.70
2022-10-12T01:23:12.229Z,9.70
2022-10-12T01:26:08.076Z,9.70
2022-10-12T01:28:49.058Z,9.60
2022-10-12T01:31:38.538Z,9.60
2022-10-12T01:34:15.768Z,9.60
2022-10-12T01:36:47.743Z,9.40
2022-10-12T01:39:25.304Z,9.70
2022-10-12T01:41:56.917Z,9.40
2022-10-12T01:44:27.283Z,9.40
2022-10-12T01:46:57.222Z,9.40
2022-10-12T01:49:31.352Z,9.50
2022-10-12T01:52:18.064Z,9.50
2022-10-12T01:54:58.455Z,9.50
2022-10-12T01:57:41.964Z,9.50
2022-10-12T02:00:13.395Z,9.60
2022-10-12T02:03:16.883Z,9.70
2022-10-12T02:05:49.112Z,9.50
2022-10-12T02:08:20.690Z,10.40
2022-10-12T02:11:01.241Z,9.60
2022-10-12T02:13:33.188Z,9.60
2022-10-12T02:16:05.363Z,9.60
2022-10-12T02:18:36.037Z,9.60
2022-10-12T02:21:05.217Z,9.60
2022-10-12T02:23:34.491Z,9.60
2022-10-12T02:26:03.572Z,9.60
2022-10-12T02:28:35.503Z,9.70
2022-10-12T02:31:10.174Z,9.60
2022-10-12T02:33:44.809Z,9.60
2022-10-12T02:36:28.224Z,9.60
2022-10-12T02:38:59.836Z,9.60
2022-10-12T02:41:52.286Z,9.70
2022-10-12T02:44:29.732Z,9.60
2022-10-12T02:47:00.158Z,9.60
2022-10-12T02:49:31.613Z,9.50
2022-10-12T02:52:00.612Z,9.50
2022-10-12T02:54:30.575Z,9.50
2022-10-12T02:56:59.161Z,9.40
2022-10-12T02:59:28.459Z,9.50
2022-10-12T03:01:56.984Z,9.50
2022-10-12T03:04:25.599Z,9.50
2022-10-12T03:06:54.159Z,9.50
2022-10-12T03:09:22.833Z,9.60
2022-10-12T03:11:51.358Z,9.50
2022-10-12T03:14:21.141Z,9.50
2022-10-12T03:16:50.506Z,9.60
2022-10-12T03:19:19.048Z,9.60
2022-10-12T03:21:47.592Z,9.60
2022-10-12T03:24:16.203Z,9.30
2022-10-12T03:26:44.732Z,9.40
2022-10-12T03:29:13.276Z,9.40
2022-10-12T03:31:41.870Z,9.40
2022-10-12T03:34:10.345Z,9.40
2022-10-12T03:36:38.880Z,9.40
2022-10-12T03:39:07.431Z,9.20
2022-10-12T03:41:35.955Z,9.20
2022-10-12T03:44:04.628Z,9.30
2022-10-12T03:46:33.183Z,9.20
2022-10-12T03:49:01.797Z,9.20
2022-10-12T03:51:30.327Z,9.20
2022-10-12T03:53:58.855Z,9.20
2022-10-12T03:56:27.397Z,9.10
2022-10-12T03:58:56.011Z,9.00
2022-10-12T04:01:25.585Z,9.00
2022-10-12T04:03:54.225Z,8.90
2022-10-12T04:06:22.747Z,8.90
2022-10-12T04:08:51.284Z,8.80
2022-10-12T04:11:20.478Z,8.80
2022-10-12T04:13:49.063Z,8.60
2022-10-12T04:16:17.593Z,8.70
2022-10-12T04:18:46.207Z,8.70
2022-10-12T04:21:17.268Z,8.60
2022-10-12T04:23:45.822Z,8.70
2022-10-12T04:26:14.353Z,8.50
2022-10-12T04:28:42.915Z,8.60
2022-10-12T04:31:11.687Z,8.50
2022-10-12T04:33:40.204Z,8.50
2022-10-12T04:36:08.979Z,8.40
2022-10-12T04:38:40.289Z,8.50
2022-10-12T04:41:08.850Z,8.50
2022-10-12T04:43:37.380Z,8.50
2022-10-12T04:46:06.017Z,8.60
2022-10-12T04:48:34.547Z,8.50
2022-10-12T04:51:03.098Z,8.40
2022-10-12T04:53:31.638Z,8.60
2022-10-12T04:56:06.211Z,8.60
2022-10-12T04:58:34.758Z,8.80
2022-10-12T05:01:03.341Z,8.80
2022-10-12T05:03:31.857Z,8.70
2022-10-12T05:06:00.412Z,8.70
2022-10-12T05:08:28.960Z,8.90
2022-10-12T05:10:59.407Z,8.80
2022-10-12T05:13:28.649Z,8.90
2022-10-12T05:15:57.197Z,8.70
2022-10-12T05:18:25.946Z,8.70
2022-10-12T05:20:57.049Z,8.80
2022-10-12T05:23:24.783Z,8.80
2022-10-12T05:25:57.619Z,9.90
2022-10-12T05:28:26.333Z,8.80
2022-10-12T05:30:54.836Z,8.80
2022-10-12T05:33:23.455Z,8.90
2022-10-12T05:35:56.221Z,8.70
2022-10-12T05:38:22.118Z,8.80
2022-10-12T05:40:50.682Z,8.70
2022-10-12T05:43:19.334Z,8.80
2022-10-12T05:45:47.868Z,8.80
2022-10-12T05:48:16.344Z,8.80
2022-10-12T05:50:44.889Z,8.80
2022-10-12T05:53:13.605Z,8.90
2022-10-12T05:55:43.705Z,8.70
2022-10-12T05:58:12.240Z,8.90
2022-10-12T06:00:40.772Z,9.00
2022-10-12T06:03:09.318Z,9.00
2022-10-12T06:05:37.856Z,9.10
2022-10-12T06:08:08.403Z,8.90
2022-10-12T06:10:37.936Z,9.10
2022-10-12T06:13:06.557Z,9.00
2022-10-12T06:15:38.659Z,9.10
2022-10-12T06:18:07.255Z,9.10
2022-10-12T06:20:35.761Z,9.20
2022-10-12T06:23:04.973Z,9.20
2022-10-12T06:25:33.600Z,9.10
2022-10-12T06:28:02.127Z,9.30
2022-10-12T06:30:30.686Z,9.20
2022-10-12T06:32:59.233Z,9.20
2022-10-12T06:35:27.774Z,9.30
2022-10-12T06:37:56.320Z,9.30
2022-10-12T06:40:24.860Z,9.30
2022-10-12T06:42:58.290Z,9.40
2022-10-12T06:45:23.856Z,9.40
2022-10-12T06:47:52.388Z,9.50
2022-10-12T06:50:20.942Z,9.70
2022-10-12T06:52:49.506Z,9.70
2022-10-12T06:55:18.325Z,9.80
2022-10-12T06:57:46.933Z,9.90
2022-10-12T07:00:15.838Z,9.90
2022-10-12T07:02:44.405Z,9.80
2022-10-12T07:05:12.967Z,9.90
2022-10-12T07:07:41.985Z,10.00
2022-10-12T07:10:11.090Z,10.10
2022-10-12T07:12:40.366Z,10.20
2022-10-12T07:15:09.676Z,10.50
2022-10-12T07:17:38.610Z,10.80
2022-10-12T07:20:07.846Z,11.10
2022-10-12T07:22:36.413Z,11.60
2022-10-12T07:25:05.331Z,11.90
2022-10-12T07:27:33.967Z,12.20
2022-10-12T07:30:02.656Z,12.30
2022-10-12T07:32:31.279Z,12.60
2022-10-12T07:34:59.893Z,12.90
2022-10-12T07:37:28.494Z,12.90
2022-10-12T07:39:57.700Z,13.20
2022-10-12T07:42:26.592Z,13.30
2022-10-12T07:44:55.197Z,13.40
2022-10-12T07:47:23.762Z,13.70
2022-10-12T07:49:52.293Z,13.90
2022-10-12T07:52:20.850Z,13.80
2022-10-12T07:54:49.442Z,13.90
2022-10-12T07:57:18.036Z,14.00
2022-10-12T07:59:47.359Z,14.10
2022-10-12T08:02:15.900Z,14.20
2022-10-12T08:04:44.483Z,14.30
2022-10-12T08:07:13.018Z,14.30
2022-10-12T08:09:40.944Z,14.40
2022-10-12T08:14:36.325Z,14.70
2022-10-12T08:17:05.246Z,15.00
2022-10-12T08:31:54.480Z,15.10
2022-10-12T08:42:05.452Z,15.60
2022-10-12T08:44:37.915Z,15.60
2022-10-12T08:47:13.232Z,15.20
2022-10-12T08:49:45.110Z,15.10
2022-10-12T08:52:12.814Z,15.00
2022-10-12T08:54:42.119Z,14.90
2022-10-12T08:57:11.493Z,14.90
2022-10-12T08:59:39.256Z,15.00
2022-10-12T09:02:11.896Z,15.00
2022-10-12T09:04:44.027Z,15.00
2022-10-12T09:07:22.145Z,15.10
2022-10-12T09:09:54.196Z,15.20
2022-10-12T09:12:23.490Z,15.50
2022-10-12T09:14:52.823Z,15.70
2022-10-12T09:17:25.081Z,15.80
2022-10-12T09:19:54.397Z,16.00
2022-10-12T09:22:22.225Z,15.70
2022-10-12T09:24:50.847Z,15.50
2022-10-12T09:27:20.298Z,15.40
2022-10-12T09:29:52.847Z,15.30
2022-10-12T09:32:34.210Z,15.20
2022-10-12T09:35:02.861Z,15.00
2022-10-12T09:37:35.513Z,15.00
2022-10-12T09:40:03.510Z,15.00
2022-10-12T09:42:32.166Z,15.10
2022-10-12T09:45:04.329Z,15.10
2022-10-12T09:47:33.098Z,15.50
2022-10-12T09:50:05.409Z,15.60
2022-10-12T09:52:34.696Z,15.70
2022-10-12T09:55:05.480Z,15.90
2022-10-12T09:57:35.104Z,16.00
2022-10-12T10:00:06.189Z,16.10
2022-10-12T10:02:34.704Z,16.20
2022-10-12T10:05:04.012Z,16.00
2022-10-12T10:07:34.505Z,15.90
2022-10-12T10:10:08.042Z,15.80
2022-10-12T10:12:37.351Z,15.80
2022-10-12T10:15:05.610Z,15.80
2022-10-12T10:17:34.319Z,15.70
2022-10-12T10:20:03.694Z,15.70
2022-10-12T10:22:32.730Z,15.90
2022-10-12T10:25:01.215Z,16.10
2022-10-12T10:27:33.917Z,16.30
2022-10-12T10:30:25.397Z,16.40
2022-10-12T10:32:42.132Z,16.50
2022-10-12T10:35:14.701Z,16.70
2022-10-12T10:37:47.022Z,16.70
2022-10-12T10:40:19.225Z,16.70
2022-10-12T10:42:48.572Z,16.70
2022-10-12T10:45:18.146Z,16.90
2022-10-12T17:46:46.359Z,17.10
2022-10-12T17:49:19.805Z,16.20
2022-10-12T17:51:50.752Z,16.00
2022-10-12T17:54:19.209Z,15.90
2022-10-12T17:56:47.000Z,16.00
2022-10-12T17:59:15.815Z,15.90
2022-10-12T18:01:43.601Z,15.80
2022-10-12T18:04:12.621Z,15.80
2022-10-12T18:06:40.813Z,15.70
2022-10-12T18:09:09.449Z,15.70
2022-10-12T18:11:37.546Z,15.70
2022-10-12T18:14:06.920Z,15.60
2022-10-12T18:16:34.793Z,15.50
2022-10-12T18:19:05.202Z,15.40
2022-10-12T18:21:33.661Z,15.40
2022-10-12T18:24:02.370Z,15.50
2022-10-12T18:26:30.496Z,15.50
2022-10-12T18:28:59.950Z,15.40
2022-10-12T18:31:31.340Z,15.50
2022-10-12T18:34:00.748Z,15.40
2022-10-12T18:36:28.666Z,15.40
2022-10-12T18:38:56.492Z,15.40
2022-10-12T18:41:27.278Z,15.40
2022-10-12T18:43:57.392Z,15.40
2022-10-12T18:46:26.342Z,15.30
2022-10-12T18:48:54.122Z,15.20
2022-10-12T18:51:26.361Z,15.20
2022-10-12T18:53:54.613Z,15.10
2022-10-12T18:56:22.837Z,15.00
2022-10-12T18:58:50.772Z,15.00
2022-10-12T19:01:19.829Z,15.00
2022-10-12T19:03:48.148Z,15.00
2022-10-12T19:06:17.030Z,14.90
2022-10-12T19:08:44.992Z,14.90
2022-10-12T19:11:13.199Z,14.80
2022-10-12T19:13:41.232Z,14.80
2022-10-12T19:16:13.174Z,14.70
2022-10-12T19:18:41.615Z,14.60
2022-10-12T19:21:10.919Z,14.60
2022-10-12T19:23:40.629Z,14.40
2022-10-12T19:26:09.916Z,14.40
2022-10-12T19:28:37.786Z,14.30
2022-10-12T19:31:10.283Z,14.30
2022-10-12T19:33:38.107Z,14.30
2022-10-12T19:36:06.903Z,14.30
2022-10-12T19:38:34.673Z,14.20
2022-10-12T19:41:02.836Z,14.10
2022-10-12T19:43:30.749Z,14.00
2022-10-12T19:46:00.038Z,14.00
2022-10-12T19:48:27.834Z,14.00
2022-10-12T19:50:59.978Z,13.90
2022-10-12T19:53:28.414Z,13.80
2022-10-12T19:56:02.789Z,13.80
2022-10-12T19:58:32.776Z,13.80
2022-10-12T20:01:05.401Z,13.80
2022-10-12T20:03:33.318Z,13.80
2022-10-12T20:06:03.512Z,13.80
2022-10-12T20:08:34.192Z,13.70
2022-10-12T20:11:02.103Z,13.80
2022-10-12T20:13:30.129Z,13.70
2022-10-12T20:15:58.182Z,13.60
2022-10-12T20:18:26.964Z,13.60
2022-10-12T20:20:55.211Z,13.70
2022-10-12T20:23:23.221Z,13.70
2022-10-12T20:25:52.441Z,13.60
2022-10-12T20:28:21.204Z,13.60
2022-10-12T20:30:49.176Z,13.60
2022-10-12T20:33:17.001Z,13.60
2022-10-12T20:35:48.362Z,13.50
2022-10-12T20:38:16.876Z,13.60
2022-10-12T20:40:46.426Z,13.60
2022-10-12T20:43:14.698Z,13.50
2022-10-12T20:45:42.867Z,13.50
2022-10-12T20:48:13.186Z,13.60
2022-10-12T20:50:40.992Z,13.40
2022-10-12T20:53:08.781Z,13.50
2022-10-12T20:55:38.158Z,13.50
2022-10-12T20:58:06.090Z,13.40
2022-10-12T21:00:33.881Z,13.40
2022-10-12T21:03:01.731Z,13.40
2022-10-12T21:05:29.485Z,13.40
2022-10-12T21:07:58.965Z,13.30
2022-10-12T21:10:27.649Z,13.40
2022-10-12T21:12:55.410Z,13.30
2022-10-12T21:15:23.206Z,13.40
2022-10-12T21:17:52.113Z,13.20
2022-10-12T21:20:19.799Z,13.30
2022-10-12T21:22:47.512Z,13.20
2022-10-12T21:25:15.381Z,13.10
2022-10-12T21:27:43.141Z,13.00
2022-10-12T21:30:11.335Z,13.00
2022-10-12T21:32:39.086Z,13.00
2022-10-12T21:35:08.692Z,13.00
2022-10-12T21:37:38.491Z,13.00
2022-10-12T21:40:06.750Z,12.90
2022-10-12T21:42:34.522Z,12.90
2022-10-12T21:45:02.493Z,13.00
2022-10-12T21:47:30.262Z,12.90
2022-10-12T21:49:58.051Z,12.90
2022-10-12T21:52:25.809Z,12.90
2022-10-12T21:54:53.737Z,12.80
2022-10-12T21:57:21.496Z,12.90
2022-10-12T21:59:49.321Z,12.90
2022-10-12T22:02:18.657Z,12.80
2022-10-12T22:04:46.630Z,12.90
2022-10-12T22:07:14.458Z,12.90
2022-10-12T22:09:42.220Z,12.90
2022-10-12T22:12:09.997Z,12.90
2022-10-12T22:14:37.884Z,12.90
2022-10-12T22:17:05.661Z,12.80
2022-10-12T22:19:33.419Z,12.70
2022-10-12T22:22:01.187Z,12.80
2022-10-12T22:24:30.241Z,12.60
2022-10-12T22:26:58.003Z,12.50
2022-10-12T22:29:27.301Z,12.40
2022-10-12T22:31:55.089Z,12.40
2022-10-12T22:34:22.855Z,12.50
2022-10-12T22:36:50.572Z,12.50
2022-10-12T22:39:18.318Z,12.50
2022-10-12T22:41:46.081Z,12.40
2022-10-12T22:44:13.868Z,12.50
2022-10-12T22:46:41.621Z,12.40
2022-10-12T22:49:09.385Z,12.40
2022-10-12T22:51:40.852Z,12.40
2022-10-12T22:54:08.983Z,12.40
2022-10-12T22:56:39.950Z,12.40
2022-10-12T22:59:08.086Z,12.50
2022-10-12T23:01:36.485Z,12.40
2022-10-12T23:04:04.466Z,12.40
2022-10-12T23:06:32.256Z,12.40
2022-10-12T23:09:00.085Z,12.30
2022-10-12T23:11:28.712Z,12.30
2022-10-12T23:13:57.355Z,12.20
2022-10-12T23:16:26.648Z,12.40
2022-10-12T23:18:59.309Z,12.40
2022-10-12T23:21:27.503Z,12.30
2022-10-12T23:23:55.248Z,12.30
2022-10-12T23:26:24.683Z,12.40
2022-10-12T23:28:52.622Z,12.70
2022-10-12T23:31:21.948Z,12.40
2022-10-12T23:33:49.814Z,12.40
2022-10-12T23:36:17.955Z,12.30
2022-10-12T23:38:45.975Z,12.40
2022-10-12T23:41:14.513Z,12.30
2022-10-12T23:43:42.187Z,12.40
2022-10-12T23:46:11.628Z,12.40
2022-10-12T23:48:39.757Z,12.40
2022-10-12T23:51:08.487Z,12.30
2022-10-12T23:53:36.705Z,12.40
2022-10-12T23:56:05.773Z,12.30
2022-10-12T23:58:33.783Z,12.30
